sensor_id;sensor_type;location;lat;lon;timestamp;P1;durP1;ratioP1;P2;durP2;ratioP2
19944;SDS011;10134;50.952;6.930;2022-11-20T00:01:27;16.57;;;9.43;;
19944;SDS011;10134;50.952;6.930;2022-11-20T00:03:56;18.57;;;10.53;;
19944;SDS011;10134;50.952;6.930;2022-11-20T00:06:25;16.57;;;9.97;;
19944;SDS011;10134;50.952;6.930;2022-11-20T00:08:54;16.37;;;9.43;;
19944;SDS011;10134;50.952;6.930;2022-11-20T00:11:23;16.80;;;10.63;;
19944;SDS011;10134;50.952;6.930;2022-11-20T00:13:53;16.23;;;9.90;;
19944;SDS011;10134;50.952;6.930;2022-11-20T00:16:24;15.27;;;9.60;;
19944;SDS011;10134;50.952;6.930;2022-11-20T00:18:53;17.00;;;10.17;;
19944;SDS011;10134;50.952;6.930;2022-11-20T00:21:22;20.73;;;11.23;;
19944;SDS011;10134;50.952;6.930;2022-11-20T00:23:54;16.43;;;9.37;;
19944;SDS011;10134;50.952;6.930;2022-11-20T00:26:22;15.37;;;8.80;;
19944;SDS011;10134;50.952;6.930;2022-11-20T00:28:55;17.27;;;9.10;;
19944;SDS011;10134;50.952;6.930;2022-11-20T00:31:23;19.17;;;10.37;;
19944;SDS011;10134;50.952;6.930;2022-11-20T00:33:51;17.50;;;9.80;;
19944;SDS011;10134;50.952;6.930;2022-11-20T00:36:19;18.30;;;9.97;;
19944;SDS011;10134;50.952;6.930;2022-11-20T00:38:53;17.80;;;9.77;;
19944;SDS011;10134;50.952;6.930;2022-11-20T00:41:23;18.87;;;10.63;;
19944;SDS011;10134;50.952;6.930;2022-11-20T00:43:52;15.50;;;9.97;;
19944;SDS011;10134;50.952;6.930;2022-11-20T00:46:24;16.23;;;9.23;;
19944;SDS011;10134;50.952;6.930;2022-11-20T00:48:52;19.07;;;9.90;;
19944;SDS011;10134;50.952;6.930;2022-11-20T00:51:21;16.70;;;9.27;;
19944;SDS011;10134;50.952;6.930;2022-11-20T00:53:54;14.40;;;8.67;;
19944;SDS011;10134;50.952;6.930;2022-11-20T00:56:22;18.53;;;9.37;;
19944;SDS011;10134;50.952;6.930;2022-11-20T00:58:49;16.33;;;8.83;;
19944;SDS011;10134;50.952;6.930;2022-11-20T01:01:20;15.90;;;9.30;;
19944;SDS011;10134;50.952;6.930;2022-11-20T01:03:52;17.83;;;9.83;;
19944;SDS011;10134;50.952;6.930;2022-11-20T01:06:21;17.27;;;10.60;;
19944;SDS011;10134;50.952;6.930;2022-11-20T01:08:52;15.80;;;9.97;;
19944;SDS011;10134;50.952;6.930;2022-11-20T01:11:21;15.90;;;9.43;;
19944;SDS011;10134;50.952;6.930;2022-11-20T01:13:51;17.37;;;10.17;;
19944;SDS011;10134;50.952;6.930;2022-11-20T01:18:51;17.60;;;10.90;;
19944;SDS011;10134;50.952;6.930;2022-11-20T01:21:22;17.43;;;10.00;;
19944;SDS011;10134;50.952;6.930;2022-11-20T01:23:51;16.53;;;10.13;;
19944;SDS011;10134;50.952;6.930;2022-11-20T01:26:23;15.53;;;9.53;;
19944;SDS011;10134;50.952;6.930;2022-11-20T01:29:13;20.73;;;9.87;;
19944;SDS011;10134;50.952;6.930;2022-11-20T01:31:42;14.93;;;10.20;;
19944;SDS011;10134;50.952;6.930;2022-11-20T01:34:11;17.07;;;10.47;;
19944;SDS011;10134;50.952;6.930;2022-11-20T01:36:41;17.33;;;10.77;;
19944;SDS011;10134;50.952;6.930;2022-11-20T01:39:16;15.77;;;9.43;;
19944;SDS011;10134;50.952;6.930;2022-11-20T01:41:46;16.67;;;10.13;;
19944;SDS011;10134;50.952;6.930;2022-11-20T01:47:37;19.83;;;11.13;;
19944;SDS011;10134;50.952;6.930;2022-11-20T01:50:11;16.53;;;9.97;;
19944;SDS011;10134;50.952;6.930;2022-11-20T01:52:50;19.13;;;9.73;;
19944;SDS011;10134;50.952;6.930;2022-11-20T01:55:32;17.83;;;8.80;;
19944;SDS011;10134;50.952;6.930;2022-11-20T01:58:03;19.53;;;11.67;;
19944;SDS011;10134;50.952;6.930;2022-11-20T02:00:31;16.63;;;10.13;;
19944;SDS011;10134;50.952;6.930;2022-11-20T02:02:59;18.17;;;10.07;;
19944;SDS011;10134;50.952;6.930;2022-11-20T02:08:05;16.60;;;9.47;;
19944;SDS011;10134;50.952;6.930;2022-11-20T02:10:33;17.00;;;9.23;;
19944;SDS011;10134;50.952;6.930;2022-11-20T02:13:01;19.20;;;10.53;;
19944;SDS011;10134;50.952;6.930;2022-11-20T02:15:48;19.20;;;10.57;;
19944;SDS011;10134;50.952;6.930;2022-11-20T02:18:16;15.57;;;9.37;;
19944;SDS011;10134;50.952;6.930;2022-11-20T02:20:46;20.93;;;11.17;;
19944;SDS011;10134;50.952;6.930;2022-11-20T02:26:11;16.73;;;10.00;;
19944;SDS011;10134;50.952;6.930;2022-11-20T02:28:41;16.67;;;10.93;;
19944;SDS011;10134;50.952;6.930;2022-11-20T02:31:08;19.77;;;10.83;;
19944;SDS011;10134;50.952;6.930;2022-11-20T02:33:35;15.60;;;9.47;;
19944;SDS011;10134;50.952;6.930;2022-11-20T02:36:03;16.57;;;9.80;;
19944;SDS011;10134;50.952;6.930;2022-11-20T02:38:31;18.13;;;9.50;;
19944;SDS011;10134;50.952;6.930;2022-11-20T02:40:58;16.90;;;10.00;;
19944;SDS011;10134;50.952;6.930;2022-11-20T02:43:25;19.63;;;10.83;;
19944;SDS011;10134;50.952;6.930;2022-11-20T02:45:52;15.20;;;8.80;;
19944;SDS011;10134;50.952;6.930;2022-11-20T02:48:20;18.93;;;10.70;;
19944;SDS011;10134;50.952;6.930;2022-11-20T02:50:50;17.00;;;10.50;;
19944;SDS011;10134;50.952;6.930;2022-11-20T02:53:17;17.03;;;10.47;;
19944;SDS011;10134;50.952;6.930;2022-11-20T02:55:44;15.20;;;9.70;;
19944;SDS011;10134;50.952;6.930;2022-11-20T02:58:11;17.03;;;9.73;;
19944;SDS011;10134;50.952;6.930;2022-11-20T03:00:39;17.37;;;9.97;;
19944;SDS011;10134;50.952;6.930;2022-11-20T03:03:06;14.40;;;8.90;;
19944;SDS011;10134;50.952;6.930;2022-11-20T03:05:33;17.87;;;10.13;;
19944;SDS011;10134;50.952;6.930;2022-11-20T03:08:00;16.33;;;10.00;;
19944;SDS011;10134;50.952;6.930;2022-11-20T03:10:28;16.33;;;9.73;;
19944;SDS011;10134;50.952;6.930;2022-11-20T03:12:55;20.17;;;11.17;;
19944;SDS011;10134;50.952;6.930;2022-11-20T03:15:23;18.60;;;10.60;;
19944;SDS011;10134;50.952;6.930;2022-11-20T03:17:54;16.97;;;10.43;;
19944;SDS011;10134;50.952;6.930;2022-11-20T03:20:22;18.60;;;10.50;;
19944;SDS011;10134;50.952;6.930;2022-11-20T03:22:50;15.67;;;10.27;;
19944;SDS011;10134;50.952;6.930;2022-11-20T03:25:17;19.70;;;10.60;;
19944;SDS011;10134;50.952;6.930;2022-11-20T03:27:44;16.00;;;10.20;;
19944;SDS011;10134;50.952;6.930;2022-11-20T03:30:12;20.57;;;10.73;;
19944;SDS011;10134;50.952;6.930;2022-11-20T03:32:40;19.33;;;10.77;;
19944;SDS011;10134;50.952;6.930;2022-11-20T03:35:07;16.10;;;9.47;;
19944;SDS011;10134;50.952;6.930;2022-11-20T03:37:35;14.93;;;9.10;;
19944;SDS011;10134;50.952;6.930;2022-11-20T03:40:02;18.33;;;9.97;;
19944;SDS011;10134;50.952;6.930;2022-11-20T03:42:30;15.60;;;9.67;;
19944;SDS011;10134;50.952;6.930;2022-11-20T03:45:16;15.43;;;9.10;;
19944;SDS011;10134;50.952;6.930;2022-11-20T03:47:44;17.27;;;10.73;;
19944;SDS011;10134;50.952;6.930;2022-11-20T03:50:12;18.17;;;10.53;;
19944;SDS011;10134;50.952;6.930;2022-11-20T03:52:40;17.53;;;9.27;;
19944;SDS011;10134;50.952;6.930;2022-11-20T03:55:08;18.23;;;10.60;;
19944;SDS011;10134;50.952;6.930;2022-11-20T03:57:35;18.23;;;10.17;;
19944;SDS011;10134;50.952;6.930;2022-11-20T04:00:03;18.50;;;10.00;;
19944;SDS011;10134;50.952;6.930;2022-11-20T04:02:31;17.67;;;10.63;;
19944;SDS011;10134;50.952;6.930;2022-11-20T04:04:58;16.47;;;9.43;;
19944;SDS011;10134;50.952;6.930;2022-11-20T04:07:25;20.40;;;11.50;;
19944;SDS011;10134;50.952;6.930;2022-11-20T04:09:53;17.30;;;9.50;;
19944;SDS011;10134;50.952;6.930;2022-11-20T04:12:20;17.90;;;10.10;;
19944;SDS011;10134;50.952;6.930;2022-11-20T04:14:47;18.67;;;10.73;;
19944;SDS011;10134;50.952;6.930;2022-11-20T04:17:14;19.20;;;10.27;;
19944;SDS011;10134;50.952;6.930;2022-11-20T04:19:42;19.37;;;11.20;;
19944;SDS011;10134;50.952;6.930;2022-11-20T04:22:09;18.47;;;9.73;;
19944;SDS011;10134;50.952;6.930;2022-11-20T04:24:38;19.17;;;10.43;;
19944;SDS011;10134;50.952;6.930;2022-11-20T04:27:05;19.70;;;11.57;;
19944;SDS011;10134;50.952;6.930;2022-11-20T04:29:32;19.57;;;11.23;;
19944;SDS011;10134;50.952;6.930;2022-11-20T04:31:59;18.63;;;10.97;;
19944;SDS011;10134;50.952;6.930;2022-11-20T04:34:27;21.33;;;11.47;;
19944;SDS011;10134;50.952;6.930;2022-11-20T04:36:54;19.53;;;11.43;;
19944;SDS011;10134;50.952;6.930;2022-11-20T04:39:21;16.97;;;9.83;;
19944;SDS011;10134;50.952;6.930;2022-11-20T04:41:49;20.23;;;10.83;;
19944;SDS011;10134;50.952;6.930;2022-11-20T04:44:36;18.53;;;10.60;;
19944;SDS011;10134;50.952;6.930;2022-11-20T04:47:04;20.40;;;10.30;;
19944;SDS011;10134;50.952;6.930;2022-11-20T04:49:32;18.37;;;11.47;;
19944;SDS011;10134;50.952;6.930;2022-11-20T04:52:00;19.43;;;10.80;;
19944;SDS011;10134;50.952;6.930;2022-11-20T04:54:27;22.13;;;10.80;;
19944;SDS011;10134;50.952;6.930;2022-11-20T04:56:55;20.23;;;10.20;;
19944;SDS011;10134;50.952;6.930;2022-11-20T04:59:22;19.80;;;11.07;;
19944;SDS011;10134;50.952;6.930;2022-11-20T05:01:50;20.03;;;10.83;;
19944;SDS011;10134;50.952;6.930;2022-11-20T05:04:17;17.93;;;10.90;;
19944;SDS011;10134;50.952;6.930;2022-11-20T05:06:44;19.93;;;11.50;;
19944;SDS011;10134;50.952;6.930;2022-11-20T05:09:12;19.27;;;10.30;;
19944;SDS011;10134;50.952;6.930;2022-11-20T05:11:39;18.80;;;10.50;;
19944;SDS011;10134;50.952;6.930;2022-11-20T05:14:07;19.57;;;10.57;;
19944;SDS011;10134;50.952;6.930;2022-11-20T05:16:34;20.07;;;11.13;;
19944;SDS011;10134;50.952;6.930;2022-11-20T05:19:02;21.57;;;10.90;;
19944;SDS011;10134;50.952;6.930;2022-11-20T05:21:30;18.20;;;10.97;;
19944;SDS011;10134;50.952;6.930;2022-11-20T05:23:58;18.50;;;10.87;;
19944;SDS011;10134;50.952;6.930;2022-11-20T05:26:26;19.53;;;10.83;;
19944;SDS011;10134;50.952;6.930;2022-11-20T05:28:53;19.60;;;11.07;;
19944;SDS011;10134;50.952;6.930;2022-11-20T05:31:21;17.57;;;10.73;;
19944;SDS011;10134;50.952;6.930;2022-11-20T05:33:54;20.07;;;10.77;;
19944;SDS011;10134;50.952;6.930;2022-11-20T05:36:22;19.07;;;11.97;;
19944;SDS011;10134;50.952;6.930;2022-11-20T05:38:50;20.30;;;11.80;;
19944;SDS011;10134;50.952;6.930;2022-11-20T05:41:22;23.67;;;12.17;;
19944;SDS011;10134;50.952;6.930;2022-11-20T05:43:50;22.77;;;10.77;;
19944;SDS011;10134;50.952;6.930;2022-11-20T05:46:19;21.60;;;12.13;;
19944;SDS011;10134;50.952;6.930;2022-11-20T05:48:54;23.87;;;12.03;;
19944;SDS011;10134;50.952;6.930;2022-11-20T05:51:22;23.37;;;12.50;;
19944;SDS011;10134;50.952;6.930;2022-11-20T05:53:50;21.00;;;11.97;;
19944;SDS011;10134;50.952;6.930;2022-11-20T05:56:19;23.53;;;12.37;;
19944;SDS011;10134;50.952;6.930;2022-11-20T05:58:47;22.20;;;12.53;;
19944;SDS011;10134;50.952;6.930;2022-11-20T06:01:19;22.17;;;12.87;;
19944;SDS011;10134;50.952;6.930;2022-11-20T06:03:48;23.33;;;13.27;;
19944;SDS011;10134;50.952;6.930;2022-11-20T06:06:18;23.97;;;11.73;;
19944;SDS011;10134;50.952;6.930;2022-11-20T06:08:46;21.33;;;11.87;;
19944;SDS011;10134;50.952;6.930;2022-11-20T06:11:14;19.93;;;11.60;;
19944;SDS011;10134;50.952;6.930;2022-11-20T06:13:43;26.17;;;12.93;;
19944;SDS011;10134;50.952;6.930;2022-11-20T06:16:11;24.30;;;12.90;;
19944;SDS011;10134;50.952;6.930;2022-11-20T06:18:40;21.63;;;12.50;;
19944;SDS011;10134;50.952;6.930;2022-11-20T06:21:09;21.97;;;11.90;;
19944;SDS011;10134;50.952;6.930;2022-11-20T06:23:38;24.23;;;12.53;;
19944;SDS011;10134;50.952;6.930;2022-11-20T06:26:08;24.10;;;13.10;;
19944;SDS011;10134;50.952;6.930;2022-11-20T06:28:37;20.10;;;11.97;;
19944;SDS011;10134;50.952;6.930;2022-11-20T06:31:05;24.20;;;12.87;;
19944;SDS011;10134;50.952;6.930;2022-11-20T06:33:33;17.47;;;11.37;;
19944;SDS011;10134;50.952;6.930;2022-11-20T06:36:01;19.17;;;11.23;;
19944;SDS011;10134;50.952;6.930;2022-11-20T06:38:36;20.73;;;11.93;;
19944;SDS011;10134;50.952;6.930;2022-11-20T06:41:05;22.97;;;11.57;;
19944;SDS011;10134;50.952;6.930;2022-11-20T06:43:33;19.43;;;11.37;;
19944;SDS011;10134;50.952;6.930;2022-11-20T06:46:00;24.13;;;12.87;;
19944;SDS011;10134;50.952;6.930;2022-11-20T06:48:28;22.57;;;12.27;;
19944;SDS011;10134;50.952;6.930;2022-11-20T06:50:56;20.83;;;11.73;;
19944;SDS011;10134;50.952;6.930;2022-11-20T06:53:23;22.43;;;11.60;;
19944;SDS011;10134;50.952;6.930;2022-11-20T06:55:51;23.43;;;12.30;;
19944;SDS011;10134;50.952;6.930;2022-11-20T06:58:18;21.90;;;12.37;;
19944;SDS011;10134;50.952;6.930;2022-11-20T07:00:46;25.47;;;12.73;;
19944;SDS011;10134;50.952;6.930;2022-11-20T07:03:13;21.60;;;12.00;;
19944;SDS011;10134;50.952;6.930;2022-11-20T07:05:40;19.73;;;11.17;;
19944;SDS011;10134;50.952;6.930;2022-11-20T07:08:08;20.80;;;12.60;;
19944;SDS011;10134;50.952;6.930;2022-11-20T07:10:35;25.17;;;12.93;;
19944;SDS011;10134;50.952;6.930;2022-11-20T07:13:02;21.73;;;11.73;;
19944;SDS011;10134;50.952;6.930;2022-11-20T07:15:30;22.87;;;11.70;;
19944;SDS011;10134;50.952;6.930;2022-11-20T07:18:00;20.57;;;12.50;;
19944;SDS011;10134;50.952;6.930;2022-11-20T07:20:28;21.00;;;11.80;;
19944;SDS011;10134;50.952;6.930;2022-11-20T07:22:56;17.53;;;10.97;;
19944;SDS011;10134;50.952;6.930;2022-11-20T07:25:27;25.10;;;14.67;;
19944;SDS011;10134;50.952;6.930;2022-11-20T07:27:58;25.57;;;13.67;;
19944;SDS011;10134;50.952;6.930;2022-11-20T07:30:26;23.40;;;12.90;;
19944;SDS011;10134;50.952;6.930;2022-11-20T07:32:55;23.20;;;11.87;;
19944;SDS011;10134;50.952;6.930;2022-11-20T07:35:23;17.90;;;11.20;;
19944;SDS011;10134;50.952;6.930;2022-11-20T07:37:51;21.73;;;11.73;;
19944;SDS011;10134;50.952;6.930;2022-11-20T07:40:19;23.57;;;12.00;;
19944;SDS011;10134;50.952;6.930;2022-11-20T07:42:50;20.07;;;11.10;;
19944;SDS011;10134;50.952;6.930;2022-11-20T07:45:21;19.23;;;11.37;;
19944;SDS011;10134;50.952;6.930;2022-11-20T07:47:50;19.10;;;12.00;;
19944;SDS011;10134;50.952;6.930;2022-11-20T07:50:18;25.13;;;12.70;;
19944;SDS011;10134;50.952;6.930;2022-11-20T07:52:46;18.33;;;10.40;;
19944;SDS011;10134;50.952;6.930;2022-11-20T07:55:14;18.00;;;9.53;;
19944;SDS011;10134;50.952;6.930;2022-11-20T07:57:41;16.20;;;9.80;;
19944;SDS011;10134;50.952;6.930;2022-11-20T08:00:10;18.90;;;10.77;;
19944;SDS011;10134;50.952;6.930;2022-11-20T08:02:38;18.10;;;10.57;;
19944;SDS011;10134;50.952;6.930;2022-11-20T08:05:07;17.90;;;10.07;;
19944;SDS011;10134;50.952;6.930;2022-11-20T08:07:38;23.40;;;11.33;;
19944;SDS011;10134;50.952;6.930;2022-11-20T08:10:08;17.13;;;9.83;;
19944;SDS011;10134;50.952;6.930;2022-11-20T08:12:43;17.70;;;10.20;;
19944;SDS011;10134;50.952;6.930;2022-11-20T08:15:33;18.13;;;10.83;;
19944;SDS011;10134;50.952;6.930;2022-11-20T08:18:02;19.03;;;11.23;;
19944;SDS011;10134;50.952;6.930;2022-11-20T08:20:51;20.23;;;11.37;;
19944;SDS011;10134;50.952;6.930;2022-11-20T08:23:18;19.03;;;11.27;;
19944;SDS011;10134;50.952;6.930;2022-11-20T08:25:48;22.47;;;11.50;;
19944;SDS011;10134;50.952;6.930;2022-11-20T08:28:17;19.53;;;11.20;;
19944;SDS011;10134;50.952;6.930;2022-11-20T08:30:48;20.73;;;11.50;;
19944;SDS011;10134;50.952;6.930;2022-11-20T08:33:16;18.17;;;10.67;;
19944;SDS011;10134;50.952;6.930;2022-11-20T08:35:45;21.87;;;12.00;;
19944;SDS011;10134;50.952;6.930;2022-11-20T08:38:12;18.90;;;11.27;;
19944;SDS011;10134;50.952;6.930;2022-11-20T08:40:39;19.33;;;10.33;;
19944;SDS011;10134;50.952;6.930;2022-11-20T08:43:06;23.33;;;12.23;;
19944;SDS011;10134;50.952;6.930;2022-11-20T08:45:34;18.43;;;10.40;;
19944;SDS011;10134;50.952;6.930;2022-11-20T08:48:02;18.83;;;11.10;;
19944;SDS011;10134;50.952;6.930;2022-11-20T08:50:30;21.03;;;11.37;;
19944;SDS011;10134;50.952;6.930;2022-11-20T08:53:06;21.43;;;11.77;;
19944;SDS011;10134;50.952;6.930;2022-11-20T08:55:33;23.47;;;12.43;;
19944;SDS011;10134;50.952;6.930;2022-11-20T08:58:04;23.33;;;11.73;;
19944;SDS011;10134;50.952;6.930;2022-11-20T09:00:32;21.50;;;11.77;;
19944;SDS011;10134;50.952;6.930;2022-11-20T09:03:01;23.07;;;12.83;;
19944;SDS011;10134;50.952;6.930;2022-11-20T09:05:28;22.40;;;12.20;;
19944;SDS011;10134;50.952;6.930;2022-11-20T09:07:56;25.37;;;12.73;;
19944;SDS011;10134;50.952;6.930;2022-11-20T09:10:25;22.67;;;12.23;;
19944;SDS011;10134;50.952;6.930;2022-11-20T09:12:53;20.47;;;11.53;;
19944;SDS011;10134;50.952;6.930;2022-11-20T09:15:22;20.30;;;11.23;;
19944;SDS011;10134;50.952;6.930;2022-11-20T09:17:50;20.70;;;11.73;;
19944;SDS011;10134;50.952;6.930;2022-11-20T09:20:18;24.20;;;12.13;;
19944;SDS011;10134;50.952;6.930;2022-11-20T09:22:45;22.03;;;12.67;;
19944;SDS011;10134;50.952;6.930;2022-11-20T09:25:13;22.60;;;12.53;;
19944;SDS011;10134;50.952;6.930;2022-11-20T09:27:40;21.30;;;11.50;;
19944;SDS011;10134;50.952;6.930;2022-11-20T09:30:13;24.20;;;12.80;;
19944;SDS011;10134;50.952;6.930;2022-11-20T09:32:42;23.53;;;13.77;;
19944;SDS011;10134;50.952;6.930;2022-11-20T09:35:09;23.57;;;12.23;;
19944;SDS011;10134;50.952;6.930;2022-11-20T09:37:37;26.10;;;12.70;;
19944;SDS011;10134;50.952;6.930;2022-11-20T09:40:05;33.83;;;12.63;;
19944;SDS011;10134;50.952;6.930;2022-11-20T09:42:41;20.50;;;11.90;;
19944;SDS011;10134;50.952;6.930;2022-11-20T09:45:25;23.87;;;12.67;;
19944;SDS011;10134;50.952;6.930;2022-11-20T09:51:08;23.63;;;12.03;;
19944;SDS011;10134;50.952;6.930;2022-11-20T09:54:08;25.63;;;12.00;;
19944;SDS011;10134;50.952;6.930;2022-11-20T09:56:55;22.07;;;11.70;;
19944;SDS011;10134;50.952;6.930;2022-11-20T09:59:42;24.67;;;12.70;;
19944;SDS011;10134;50.952;6.930;2022-11-20T10:02:15;23.07;;;11.97;;
19944;SDS011;10134;50.952;6.930;2022-11-20T10:18:59;20.93;;;12.20;;
19944;SDS011;10134;50.952;6.930;2022-11-20T10:21:55;27.03;;;11.77;;
19944;SDS011;10134;50.952;6.930;2022-11-20T10:29:59;27.00;;;14.80;;
19944;SDS011;10134;50.952;6.930;2022-11-20T10:32:34;34.00;;;17.67;;
19944;SDS011;10134;50.952;6.930;2022-11-20T10:37:59;26.93;;;13.80;;
19944;SDS011;10134;50.952;6.930;2022-11-20T10:40:41;25.37;;;14.17;;
19944;SDS011;10134;50.952;6.930;2022-11-20T10:43:16;26.20;;;13.23;;
19944;SDS011;10134;50.952;6.930;2022-11-20T10:46:01;26.70;;;14.40;;
19944;SDS011;10134;50.952;6.930;2022-11-20T10:48:33;31.37;;;13.00;;
19944;SDS011;10134;50.952;6.930;2022-11-20T10:51:16;24.10;;;13.77;;
19944;SDS011;10134;50.952;6.930;2022-11-20T10:53:51;23.90;;;12.93;;
19944;SDS011;10134;50.952;6.930;2022-11-20T10:56:26;30.23;;;14.33;;
19944;SDS011;10134;50.952;6.930;2022-11-20T10:59:19;23.67;;;13.77;;
19944;SDS011;10134;50.952;6.930;2022-11-20T11:02:12;19.93;;;12.30;;
19944;SDS011;10134;50.952;6.930;2022-11-20T11:04:49;23.03;;;12.57;;
19944;SDS011;10134;50.952;6.930;2022-11-20T11:07:36;24.43;;;14.17;;
19944;SDS011;10134;50.952;6.930;2022-11-20T11:10:28;19.53;;;12.10;;
19944;SDS011;10134;50.952;6.930;2022-11-20T11:13:18;26.60;;;14.23;;
19944;SDS011;10134;50.952;6.930;2022-11-20T11:15:56;24.33;;;13.50;;
19944;SDS011;10134;50.952;6.930;2022-11-20T11:20:57;25.17;;;13.27;;
19944;SDS011;10134;50.952;6.930;2022-11-20T11:25:57;24.83;;;13.43;;
19944;SDS011;10134;50.952;6.930;2022-11-20T11:28:26;24.30;;;12.97;;
19944;SDS011;10134;50.952;6.930;2022-11-20T11:30:57;23.33;;;13.47;;
19944;SDS011;10134;50.952;6.930;2022-11-20T11:33:26;22.83;;;13.07;;
19944;SDS011;10134;50.952;6.930;2022-11-20T11:36:01;27.57;;;13.27;;
19944;SDS011;10134;50.952;6.930;2022-11-20T11:38:35;23.77;;;13.07;;
19944;SDS011;10134;50.952;6.930;2022-11-20T11:41:14;23.70;;;12.50;;
19944;SDS011;10134;50.952;6.930;2022-11-20T11:43:52;19.97;;;11.93;;
19944;SDS011;10134;50.952;6.930;2022-11-20T11:46:39;21.67;;;12.47;;
19944;SDS011;10134;50.952;6.930;2022-11-20T11:49:15;23.90;;;12.97;;
19944;SDS011;10134;50.952;6.930;2022-11-20T11:54:25;26.60;;;13.80;;
19944;SDS011;10134;50.952;6.930;2022-11-20T11:56:58;25.33;;;13.93;;
19944;SDS011;10134;50.952;6.930;2022-11-20T11:59:39;24.43;;;13.30;;
19944;SDS011;10134;50.952;6.930;2022-11-20T12:07:50;24.23;;;13.53;;
19944;SDS011;10134;50.952;6.930;2022-11-20T12:12:50;23.83;;;13.93;;
19944;SDS011;10134;50.952;6.930;2022-11-20T12:15:32;24.67;;;13.87;;
19944;SDS011;10134;50.952;6.930;2022-11-20T12:18:00;25.50;;;13.80;;
19944;SDS011;10134;50.952;6.930;2022-11-20T12:20:35;24.53;;;14.03;;
19944;SDS011;10134;50.952;6.930;2022-11-20T12:23:22;26.33;;;13.80;;
19944;SDS011;10134;50.952;6.930;2022-11-20T12:26:00;20.77;;;12.50;;
19944;SDS011;10134;50.952;6.930;2022-11-20T12:31:27;27.83;;;14.00;;
19944;SDS011;10134;50.952;6.930;2022-11-20T12:34:02;24.30;;;14.63;;
19944;SDS011;10134;50.952;6.930;2022-11-20T12:36:52;24.83;;;13.30;;
19944;SDS011;10134;50.952;6.930;2022-11-20T12:39:36;21.97;;;12.47;;
19944;SDS011;10134;50.952;6.930;2022-11-20T12:42:12;21.47;;;12.90;;
19944;SDS011;10134;50.952;6.930;2022-11-20T12:45:09;22.40;;;12.10;;
19944;SDS011;10134;50.952;6.930;2022-11-20T12:48:02;22.50;;;12.87;;
19944;SDS011;10134;50.952;6.930;2022-11-20T13:02:01;21.13;;;12.17;;
19944;SDS011;10134;50.952;6.930;2022-11-20T13:05:22;22.07;;;12.13;;
19944;SDS011;10134;50.952;6.930;2022-11-20T13:08:08;23.27;;;12.60;;
19944;SDS011;10134;50.952;6.930;2022-11-20T13:10:58;22.80;;;12.27;;
19944;SDS011;10134;50.952;6.930;2022-11-20T13:16:07;23.37;;;12.23;;
19944;SDS011;10134;50.952;6.930;2022-11-20T13:19:01;21.27;;;12.63;;
19944;SDS011;10134;50.952;6.930;2022-11-20T13:24:04;22.30;;;12.03;;
19944;SDS011;10134;50.952;6.930;2022-11-20T13:26:32;22.47;;;11.93;;
19944;SDS011;10134;50.952;6.930;2022-11-20T13:29:16;18.33;;;11.17;;
19944;SDS011;10134;50.952;6.930;2022-11-20T13:31:48;18.20;;;11.90;;
19944;SDS011;10134;50.952;6.930;2022-11-20T13:34:25;21.63;;;11.97;;
19944;SDS011;10134;50.952;6.930;2022-11-20T13:36:54;23.13;;;12.53;;
19944;SDS011;10134;50.952;6.930;2022-11-20T13:39:24;24.43;;;12.73;;
19944;SDS011;10134;50.952;6.930;2022-11-20T13:41:57;22.33;;;11.03;;
19944;SDS011;10134;50.952;6.930;2022-11-20T13:44:44;21.10;;;12.03;;
19944;SDS011;10134;50.952;6.930;2022-11-20T13:47:21;21.40;;;12.30;;
19944;SDS011;10134;50.952;6.930;2022-11-20T13:49:51;21.33;;;12.10;;
19944;SDS011;10134;50.952;6.930;2022-11-20T14:00:52;21.60;;;12.27;;
19944;SDS011;10134;50.952;6.930;2022-11-20T14:03:25;24.00;;;12.90;;
19944;SDS011;10134;50.952;6.930;2022-11-20T14:06:26;22.40;;;12.33;;
19944;SDS011;10134;50.952;6.930;2022-11-20T14:08:55;21.80;;;12.07;;
19944;SDS011;10134;50.952;6.930;2022-11-20T14:14:00;22.40;;;11.57;;
19944;SDS011;10134;50.952;6.930;2022-11-20T14:16:33;24.27;;;12.87;;
19944;SDS011;10134;50.952;6.930;2022-11-20T14:21:47;19.13;;;11.43;;
19944;SDS011;10134;50.952;6.930;2022-11-20T14:24:25;20.60;;;11.63;;
19944;SDS011;10134;50.952;6.930;2022-11-20T14:26:59;18.47;;;10.63;;
19944;SDS011;10134;50.952;6.930;2022-11-20T14:29:32;21.63;;;11.53;;
19944;SDS011;10134;50.952;6.930;2022-11-20T14:32:04;23.87;;;13.07;;
19944;SDS011;10134;50.952;6.930;2022-11-20T14:34:32;25.73;;;14.13;;
19944;SDS011;10134;50.952;6.930;2022-11-20T14:37:05;22.93;;;11.77;;
19944;SDS011;10134;50.952;6.930;2022-11-20T14:39:47;20.20;;;12.10;;
19944;SDS011;10134;50.952;6.930;2022-11-20T14:42:44;20.87;;;11.97;;
19944;SDS011;10134;50.952;6.930;2022-11-20T14:45:11;20.97;;;11.90;;
19944;SDS011;10134;50.952;6.930;2022-11-20T14:47:39;20.10;;;11.10;;
19944;SDS011;10134;50.952;6.930;2022-11-20T14:50:12;19.80;;;10.67;;
19944;SDS011;10134;50.952;6.930;2022-11-20T14:58:18;19.03;;;11.03;;
19944;SDS011;10134;50.952;6.930;2022-11-20T15:00:55;22.13;;;12.13;;
19944;SDS011;10134;50.952;6.930;2022-11-20T15:03:38;21.63;;;11.77;;
19944;SDS011;10134;50.952;6.930;2022-11-20T15:06:07;19.53;;;11.23;;
19944;SDS011;10134;50.952;6.930;2022-11-20T15:08:38;19.03;;;10.40;;
19944;SDS011;10134;50.952;6.930;2022-11-20T15:11:19;17.90;;;9.77;;
19944;SDS011;10134;50.952;6.930;2022-11-20T15:13:52;20.13;;;11.13;;
19944;SDS011;10134;50.952;6.930;2022-11-20T15:16:20;21.90;;;11.47;;
19944;SDS011;10134;50.952;6.930;2022-11-20T15:18:49;18.53;;;11.33;;
19944;SDS011;10134;50.952;6.930;2022-11-20T15:21:18;21.57;;;12.03;;
19944;SDS011;10134;50.952;6.930;2022-11-20T15:23:47;21.97;;;11.63;;
19944;SDS011;10134;50.952;6.930;2022-11-20T15:26:18;22.97;;;11.93;;
19944;SDS011;10134;50.952;6.930;2022-11-20T15:28:52;20.00;;;10.40;;
19944;SDS011;10134;50.952;6.930;2022-11-20T15:31:21;20.07;;;11.20;;
19944;SDS011;10134;50.952;6.930;2022-11-20T15:33:49;25.23;;;12.23;;
19944;SDS011;10134;50.952;6.930;2022-11-20T15:36:17;24.40;;;12.57;;
19944;SDS011;10134;50.952;6.930;2022-11-20T15:38:45;22.10;;;12.33;;
19944;SDS011;10134;50.952;6.930;2022-11-20T15:41:12;19.67;;;11.33;;
19944;SDS011;10134;50.952;6.930;2022-11-20T15:43:39;21.37;;;12.10;;
19944;SDS011;10134;50.952;6.930;2022-11-20T15:46:14;21.33;;;12.47;;
19944;SDS011;10134;50.952;6.930;2022-11-20T15:48:43;22.17;;;11.70;;
19944;SDS011;10134;50.952;6.930;2022-11-20T15:51:33;21.00;;;11.90;;
19944;SDS011;10134;50.952;6.930;2022-11-20T15:54:12;26.77;;;13.97;;
19944;SDS011;10134;50.952;6.930;2022-11-20T15:56:41;23.47;;;12.07;;
19944;SDS011;10134;50.952;6.930;2022-11-20T15:59:08;20.83;;;12.33;;
19944;SDS011;10134;50.952;6.930;2022-11-20T16:01:35;23.53;;;12.20;;
19944;SDS011;10134;50.952;6.930;2022-11-20T16:04:04;17.83;;;10.23;;
19944;SDS011;10134;50.952;6.930;2022-11-20T16:06:35;18.20;;;10.50;;
19944;SDS011;10134;50.952;6.930;2022-11-20T16:09:02;18.77;;;10.53;;
19944;SDS011;10134;50.952;6.930;2022-11-20T16:11:30;16.63;;;10.23;;
19944;SDS011;10134;50.952;6.930;2022-11-20T16:13:57;17.37;;;8.77;;
19944;SDS011;10134;50.952;6.930;2022-11-20T16:16:43;16.13;;;9.43;;
19944;SDS011;10134;50.952;6.930;2022-11-20T16:19:11;17.10;;;8.67;;
19944;SDS011;10134;50.952;6.930;2022-11-20T16:21:40;13.57;;;9.03;;